createdAt,value
2023-04-27T00:06:53.480Z,991.3
2023-04-27T00:17:32.081Z,991.2
2023-04-27T00:22:51.789Z,991.2
2023-04-27T00:33:30.796Z,991
2023-04-27T00:38:50.551Z,991
2023-04-27T00:44:10.002Z,991
2023-04-27T00:49:29.557Z,991
2023-04-27T01:00:08.563Z,991
2023-04-27T01:05:28.122Z,991.1
2023-04-27T01:16:06.910Z,991.1
2023-04-27T01:21:25.804Z,991.2
2023-04-27T01:32:04.162Z,991.1
2023-04-27T01:42:42.555Z,991.2
2023-04-27T01:48:02.083Z,991.2
2023-04-27T01:58:40.473Z,991.3
2023-04-27T02:04:00.163Z,991.3
2023-04-27T02:09:19.510Z,991.4
2023-04-27T02:14:38.332Z,991.4
2023-04-27T02:25:17.781Z,991.4
2023-04-27T02:30:37.224Z,991.4
2023-04-27T02:41:15.718Z,991.4
2023-04-27T02:46:34.908Z,991.4
2023-04-27T02:57:14.181Z,991.5
2023-04-27T03:13:11.444Z,991.6
2023-04-27T03:23:50.207Z,991.7
2023-04-27T03:29:09.937Z,991.7
2023-04-27T03:39:57.807Z,991.7
2023-04-27T03:55:47.616Z,991.5
2023-04-27T04:06:26.354Z,991.7
2023-04-27T04:11:46.167Z,991.6
2023-04-27T04:22:25.292Z,991.5
2023-04-27T04:33:03.119Z,991.5
2023-04-27T04:43:41.926Z,991.7
2023-04-27T04:49:01.126Z,991.6
2023-04-27T04:59:40.196Z,991.7
2023-04-27T05:04:59.751Z,991.7
2023-04-27T05:10:19.184Z,991.6
2023-04-27T05:15:38.880Z,991.7
2023-04-27T05:26:17.751Z,991.7
2023-04-27T05:31:36.740Z,991.7
2023-04-27T05:42:15.253Z,991.7
2023-04-27T05:47:34.876Z,991.7
2023-04-27T05:58:13.472Z,991.8
2023-04-27T06:08:51.280Z,991.9
2023-04-27T06:14:10.493Z,991.9
2023-04-27T06:24:48.116Z,991.9
2023-04-27T06:30:06.964Z,991.9
2023-04-27T06:35:26.474Z,991.9
2023-04-27T06:40:45.570Z,991.9
2023-04-27T06:56:43.114Z,991.9
2023-04-27T07:07:21.566Z,991.9
2023-04-27T07:12:41.519Z,992
2023-04-27T07:23:19.418Z,991.9
2023-04-27T07:28:38.659Z,992
2023-04-27T07:39:17.849Z,992
2023-04-27T07:49:56.055Z,992
2023-04-27T07:55:15.059Z,992
2023-04-27T08:05:53.350Z,992
2023-04-27T08:11:12.813Z,991.9
2023-04-27T08:16:31.690Z,991.9
2023-04-27T08:21:51.234Z,991.9
2023-04-27T08:32:30.301Z,991.8
2023-04-27T08:37:49.776Z,991.7
2023-04-27T08:48:28.970Z,991.5
2023-04-27T08:53:47.822Z,991.5
2023-04-27T09:04:27.230Z,991.3
2023-04-27T09:09:46.165Z,991.3
2023-04-27T09:15:05.545Z,991.3
2023-04-27T09:20:24.717Z,991.3
2023-04-27T09:31:03.528Z,991.2
2023-04-27T09:36:22.358Z,991.2
2023-04-27T09:47:00.506Z,991.3
2023-04-27T09:52:19.429Z,991.2
2023-04-27T09:57:38.975Z,991.1
2023-04-27T10:02:58.629Z,991.1
2023-04-27T10:13:36.787Z,991
2023-04-27T10:18:55.957Z,991
2023-04-27T10:29:33.802Z,991
2023-04-27T10:34:53.141Z,991.1
2023-04-27T10:45:32.003Z,990.8
2023-04-27T10:56:09.560Z,990.7
2023-04-27T11:01:28.620Z,990.7
2023-04-27T11:06:47.737Z,990.8
2023-04-27T11:12:06.958Z,990.8
2023-04-27T11:22:45.476Z,990.6
2023-04-27T11:38:42.757Z,990.6
2023-04-27T11:49:20.860Z,990.6
2023-04-27T11:54:40.318Z,990.6
2023-04-27T12:05:28.455Z,990.5
2023-04-27T12:10:38.299Z,990.5
2023-04-27T12:15:59.092Z,990.5
2023-04-27T12:21:16.736Z,990.5
2023-04-27T12:31:55.038Z,990.3
2023-04-27T12:37:14.012Z,990.4
2023-04-27T12:48:01.520Z,990.3
2023-04-27T12:53:11.577Z,990.3
2023-04-27T13:03:50.264Z,990.1
2023-04-27T13:19:48.155Z,989.9
2023-04-27T13:25:31.992Z,989.9
2023-04-27T13:36:10.658Z,989.8
2023-04-27T13:52:07.563Z,989.7
2023-04-27T14:02:45.929Z,989.7
2023-04-27T14:08:04.612Z,989.6
2023-04-27T14:18:42.544Z,989.6
2023-04-27T14:34:39.591Z,989.6
2023-04-27T14:45:17.802Z,989.5
2023-04-27T14:50:36.696Z,989.5
2023-04-27T15:01:15.143Z,989.6
2023-04-27T15:06:33.802Z,989.6
2023-04-27T15:17:12.043Z,989.6
2023-04-27T15:27:50.168Z,989.6
2023-04-27T15:33:10.328Z,989.6
2023-04-27T15:43:47.437Z,989.6
2023-04-27T15:49:06.274Z,989.5
2023-04-27T15:59:44.181Z,989.4
2023-04-27T16:05:03.669Z,989.3
2023-04-27T16:15:41.448Z,989.1
2023-04-27T16:26:20.208Z,989.1
2023-04-27T16:31:39.289Z,989
2023-04-27T16:42:17.636Z,988.9
2023-04-27T16:47:37.110Z,988.9
2023-04-27T16:58:15.329Z,988.9
2023-04-27T17:08:54.092Z,988.9
2023-04-27T17:14:12.929Z,988.9
2023-04-27T17:24:50.815Z,988.9
2023-04-27T17:30:09.854Z,988.9
2023-04-27T17:35:29.286Z,988.8
2023-04-27T17:40:48.255Z,988.9
2023-04-27T17:51:26.559Z,988.9
2023-04-27T18:02:04.992Z,989
2023-04-27T18:07:24.347Z,989
2023-04-27T18:18:03.104Z,989
2023-04-27T18:23:22.070Z,989
2023-04-27T18:34:00.749Z,989.1
2023-04-27T18:39:20.321Z,989.1
2023-04-27T18:44:39.294Z,989.2
2023-04-27T18:49:58.230Z,989.2
2023-04-27T19:00:36.988Z,989.2
2023-04-27T19:05:56.423Z,989.4
2023-04-27T19:16:34.975Z,989.4
2023-04-27T19:27:13.648Z,989.4
2023-04-27T19:32:32.962Z,989.5
2023-04-27T19:43:11.198Z,989.5
2023-04-27T19:48:30.407Z,989.4
2023-04-27T19:59:09.045Z,989.4
2023-04-27T20:04:28.961Z,989.4
2023-04-27T20:15:06.765Z,989.5
2023-04-27T20:25:44.380Z,989.5
2023-04-27T20:31:03.703Z,989.4
2023-04-27T20:41:42.742Z,989.3
2023-04-27T20:47:01.531Z,989.3
2023-04-27T20:57:49.981Z,989.3
2023-04-27T21:08:18.354Z,989.3
2023-04-27T21:13:37.161Z,989.2
2023-04-27T21:24:15.849Z,989.1
2023-04-27T21:29:34.790Z,989.2
2023-04-27T21:40:13.894Z,989
2023-04-27T21:50:51.944Z,988.9
2023-04-27T21:56:10.843Z,988.9
2023-04-27T22:06:49.283Z,988.8
2023-04-27T22:12:08.173Z,988.7
2023-04-27T22:22:46.332Z,988.7
2023-04-27T22:33:24.844Z,988.7
2023-04-27T22:38:44.089Z,988.8
2023-04-27T22:49:22.359Z,988.7
2023-04-27T22:54:41.797Z,988.6
2023-04-27T23:05:19.895Z,988.7
2023-04-27T23:15:58.915Z,988.7
2023-04-27T23:21:18.094Z,988.6
2023-04-27T23:31:58.083Z,988.6
2023-04-27T23:37:16.973Z,988.5
2023-04-27T23:47:58.790Z,988.4
2023-04-27T23:53:15.398Z,988.3
